Frederike Selmer — V7QY8 — position and weather

sailwx.info

Track history (hours):
 
Tides and Currents Weather Stations Pressure Air Temp Water Temp Dewpoint Dewpoint Depression Visibility Wind Speed Wind Dir Waves Ship Positions

Frederike Selmer

Last reported at 2015-Sep-02 14:33 UTC. Time now 2015-Sep-04 12:25 UTC.
Position N 20°11' E 110°09'.

Length 188 m; draft 7 m.

Type: Cargo ship. MMSI: 538090377.

Date/timePositionNaut miles runAvg speedWind from/ knotsBaromVisibWave heightAir tempDewpointWater temp
2015-Sep-02 14:33N 20°11' E 110°09'10 9.9
2015-Sep-02 13:33N 20°12' E 110°20'25210.9
2015-Sep-01 14:27N 22°06' E 114°22'8 8.7
2015-Sep-01 13:33N 22°07' E 114°13'4 1.8
2015-Sep-01 11:06N 22°10' E 114°09'0 0.1
2015-Sep-01 08:19N 22°09' E 114°10'17 5.6
2015-Sep-01 05:20N 22°06' E 113°52'5 6.7
2015-Sep-01 04:33N 22°09' E 113°48'1211.8
2015-Sep-01 03:33N 22°21' E 113°47'1211.3
2015-Sep-01 02:29N 22°33' E 113°44'10 9.9
2015-Sep-01 01:29N 22°42' E 113°41'1010.9
2015-Sep-01 00:33N 22°50' E 113°35'1010.3
2015-Aug-31 23:33N 23°00' E 113°32'1 0.6
2015-Aug-31 22:23N 23°01' E 113°32'0 0.0
2015-Aug-31 21:29N 23°01' E 113°32'0 0.0
2015-Aug-31 20:05N 23°01' E 113°32'0 0.0
2015-Aug-31 18:23N 23°01' E 113°32'0 0.0
2015-Aug-31 17:17N 23°01' E 113°32'0 0.0
2015-Aug-31 16:05N 23°01' E 113°32'0 0.0
2015-Aug-31 15:23N 23°01' E 113°32'0 0.0
2015-Aug-31 14:29N 23°01' E 113°32'0 0.0
2015-Aug-31 13:23N 23°01' E 113°32'0 0.0
2015-Aug-31 12:29N 23°01' E 113°32'0 0.0
2015-Aug-31 10:29N 23°01' E 113°32'0 0.0
2015-Aug-31 09:29N 23°01' E 113°32'0 0.0
2015-Aug-31 07:29N 23°01' E 113°32'0 0.0
2015-Aug-31 06:29N 23°01' E 113°32'1 0.2
2015-Aug-31 04:04N 23°01' E 113°32'0 0.0
2015-Aug-31 03:22N 23°01' E 113°32'0 0.0
2015-Aug-31 01:22N 23°01' E 113°32'0 0.0
2015-Aug-31 00:28N 23°01' E 113°32'0 0.0
2015-Aug-30 23:28N 23°01' E 113°32'0 0.0
2015-Aug-30 22:16N 23°01' E 113°32'1 1.0
2015-Aug-30 21:33N 23°01' E 113°31'0 0.3
2015-Aug-30 20:29N 23°02' E 113°31'0 0.0
2015-Aug-30 19:29N 23°02' E 113°31'0 0.0
2015-Aug-30 18:29N 23°02' E 113°31'0 0.0
2015-Aug-30 17:23N 23°02' E 113°31'0 0.0
2015-Aug-30 16:23N 23°02' E 113°31'0 0.0
2015-Aug-30 15:29N 23°02' E 113°31'0 0.0
2015-Aug-30 13:29N 23°02' E 113°31'0 0.0
2015-Aug-30 12:29N 23°02' E 113°31'0 0.0
2015-Aug-30 10:23N 23°02' E 113°31'0 0.0
2015-Aug-30 09:23N 23°02' E 113°31'0 0.0
2015-Aug-30 08:23N 23°02' E 113°31'0 0.0
2015-Aug-30 07:05N 23°02' E 113°31'0 0.0
2015-Aug-30 06:23N 23°02' E 113°31'0 0.0
2015-Aug-30 05:29N 23°02' E 113°31'0 0.0
2015-Aug-30 04:17N 23°02' E 113°31'0 0.0
2015-Aug-30 03:29N 23°02' E 113°31'0 0.0
2015-Aug-30 02:11N 23°02' E 113°31'0 0.0
2015-Aug-30 01:17N 23°02' E 113°31'0 0.0
2015-Aug-30 00:29N 23°02' E 113°31'0 0.0
2015-Aug-29 23:29N 23°02' E 113°31'0 0.0
2015-Aug-29 22:29N 23°02' E 113°31'0 0.0
2015-Aug-29 21:29N 23°02' E 113°31'0 0.0
2015-Aug-29 20:29N 23°02' E 113°31'0 0.0
2015-Aug-29 19:29N 23°02' E 113°31'0 0.0
2015-Aug-29 18:29N 23°02' E 113°31'0 0.0
2015-Aug-29 17:11N 23°02' E 113°31'0 0.0
2015-Aug-29 16:29N 23°02' E 113°31'0 0.0
2015-Aug-29 11:17N 23°02' E 113°31'0 0.0
2015-Aug-29 10:29N 23°02' E 113°31'0 0.0
2015-Aug-29 09:29N 23°02' E 113°31'0 0.0
2015-Aug-29 08:23N 23°02' E 113°31'0 0.0
2015-Aug-29 07:29N 23°02' E 113°31'0 0.0
2015-Aug-29 06:17N 23°02' E 113°31'0 0.0
2015-Aug-29 05:23N 23°02' E 113°31'0 0.0
2015-Aug-29 04:29N 23°02' E 113°31'0 0.0
2015-Aug-29 03:29N 23°02' E 113°31'0 0.0
2015-Aug-29 02:23N 23°02' E 113°31'0 0.0
2015-Aug-29 01:23N 23°02' E 113°31'0 0.0
2015-Aug-28 23:17N 23°02' E 113°31'0 0.0
2015-Aug-28 22:29N 23°02' E 113°31'0 0.0
2015-Aug-28 21:29N 23°02' E 113°31'0 0.0
2015-Aug-28 20:29N 23°02' E 113°31'0 0.0
2015-Aug-28 19:23N 23°02' E 113°31'0 0.0
2015-Aug-28 18:29N 23°02' E 113°31'0 0.0
2015-Aug-28 17:29N 23°02' E 113°31'1 0.7
2015-Aug-28 16:32N 23°01' E 113°32'8 8.2
2015-Aug-28 15:34N 22°53' E 113°34'11 5.2
2015-Aug-28 13:27N 22°44' E 113°40'0 0.0
2015-Aug-28 12:27N 22°44' E 113°40'0 0.1
2015-Aug-28 10:09N 22°44' E 113°40'0 0.2
2015-Aug-28 09:32N 22°43' E 113°40'0 0.1
2015-Aug-28 02:30N 22°44' E 113°40'0 0.1
2015-Aug-28 01:32N 22°44' E 113°40'21 8.6
2015-Aug-27 23:09N 22°24' E 113°46'711.1
2015-Aug-27 22:33N 22°18' E 113°48'1110.3
2015-Aug-27 21:31N 22°07' E 113°51'  
Track history (hours):
 
Tides and Currents Weather Stations Pressure Air Temp Water Temp Dewpoint Dewpoint Depression Visibility Wind Speed Wind Dir Waves Ship Positions

Frederike Selmer

Last reported at 2015-Sep-02 14:33 UTC. Time now 2015-Sep-04 12:25 UTC.
Position N 20°11' E 110°09'.

Length 188 m; draft 7 m.

Type: Cargo ship. MMSI: 538090377.

Date/timePositionNaut miles runAvg speedWind from/ knotsBaromVisibWave heightAir tempDewpointWater temp
2015-Sep-02 14:33N 20°11' E 110°09'10 9.9
2015-Sep-02 13:33N 20°12' E 110°20'25210.9
2015-Sep-01 14:27N 22°06' E 114°22'8 8.7
2015-Sep-01 13:33N 22°07' E 114°13'4 1.8
2015-Sep-01 11:06N 22°10' E 114°09'0 0.1
2015-Sep-01 08:19N 22°09' E 114°10'17 5.6
2015-Sep-01 05:20N 22°06' E 113°52'5 6.7
2015-Sep-01 04:33N 22°09' E 113°48'1211.8
2015-Sep-01 03:33N 22°21' E 113°47'1211.3
2015-Sep-01 02:29N 22°33' E 113°44'10 9.9
2015-Sep-01 01:29N 22°42' E 113°41'1010.9
2015-Sep-01 00:33N 22°50' E 113°35'1010.3
2015-Aug-31 23:33N 23°00' E 113°32'1 0.6
2015-Aug-31 22:23N 23°01' E 113°32'0 0.0
2015-Aug-31 21:29N 23°01' E 113°32'0 0.0
2015-Aug-31 20:05N 23°01' E 113°32'0 0.0
2015-Aug-31 18:23N 23°01' E 113°32'0 0.0
2015-Aug-31 17:17N 23°01' E 113°32'0 0.0
2015-Aug-31 16:05N 23°01' E 113°32'0 0.0
2015-Aug-31 15:23N 23°01' E 113°32'0 0.0
2015-Aug-31 14:29N 23°01' E 113°32'0 0.0
2015-Aug-31 13:23N 23°01' E 113°32'0 0.0
2015-Aug-31 12:29N 23°01' E 113°32'0 0.0
2015-Aug-31 10:29N 23°01' E 113°32'0 0.0
2015-Aug-31 09:29N 23°01' E 113°32'0 0.0
2015-Aug-31 07:29N 23°01' E 113°32'0 0.0
2015-Aug-31 06:29N 23°01' E 113°32'1 0.2
2015-Aug-31 04:04N 23°01' E 113°32'0 0.0
2015-Aug-31 03:22N 23°01' E 113°32'0 0.0
2015-Aug-31 01:22N 23°01' E 113°32'0 0.0
2015-Aug-31 00:28N 23°01' E 113°32'0 0.0
2015-Aug-30 23:28N 23°01' E 113°32'0 0.0
2015-Aug-30 22:16N 23°01' E 113°32'1 1.0
2015-Aug-30 21:33N 23°01' E 113°31'0 0.3
2015-Aug-30 20:29N 23°02' E 113°31'0 0.0
2015-Aug-30 19:29N 23°02' E 113°31'0 0.0
2015-Aug-30 18:29N 23°02' E 113°31'0 0.0
2015-Aug-30 17:23N 23°02' E 113°31'0 0.0
2015-Aug-30 16:23N 23°02' E 113°31'0 0.0
2015-Aug-30 15:29N 23°02' E 113°31'0 0.0
2015-Aug-30 13:29N 23°02' E 113°31'0 0.0
2015-Aug-30 12:29N 23°02' E 113°31'0 0.0
2015-Aug-30 10:23N 23°02' E 113°31'0 0.0
2015-Aug-30 09:23N 23°02' E 113°31'0 0.0
2015-Aug-30 08:23N 23°02' E 113°31'0 0.0
2015-Aug-30 07:05N 23°02' E 113°31'0 0.0
2015-Aug-30 06:23N 23°02' E 113°31'0 0.0
2015-Aug-30 05:29N 23°02' E 113°31'0 0.0
2015-Aug-30 04:17N 23°02' E 113°31'0 0.0
2015-Aug-30 03:29N 23°02' E 113°31'0 0.0
2015-Aug-30 02:11N 23°02' E 113°31'0 0.0
2015-Aug-30 01:17N 23°02' E 113°31'0 0.0
2015-Aug-30 00:29N 23°02' E 113°31'0 0.0
2015-Aug-29 23:29N 23°02' E 113°31'0 0.0
2015-Aug-29 22:29N 23°02' E 113°31'0 0.0
2015-Aug-29 21:29N 23°02' E 113°31'0 0.0
2015-Aug-29 20:29N 23°02' E 113°31'0 0.0
2015-Aug-29 19:29N 23°02' E 113°31'0 0.0
2015-Aug-29 18:29N 23°02' E 113°31'0 0.0
2015-Aug-29 17:11N 23°02' E 113°31'0 0.0
2015-Aug-29 16:29N 23°02' E 113°31'0 0.0
2015-Aug-29 11:17N 23°02' E 113°31'0 0.0
2015-Aug-29 10:29N 23°02' E 113°31'0 0.0
2015-Aug-29 09:29N 23°02' E 113°31'0 0.0
2015-Aug-29 08:23N 23°02' E 113°31'0 0.0
2015-Aug-29 07:29N 23°02' E 113°31'0 0.0
2015-Aug-29 06:17N 23°02' E 113°31'0 0.0
2015-Aug-29 05:23N 23°02' E 113°31'0 0.0
2015-Aug-29 04:29N 23°02' E 113°31'0 0.0
2015-Aug-29 03:29N 23°02' E 113°31'0 0.0
2015-Aug-29 02:23N 23°02' E 113°31'0 0.0
2015-Aug-29 01:23N 23°02' E 113°31'0 0.0
2015-Aug-28 23:17N 23°02' E 113°31'0 0.0
2015-Aug-28 22:29N 23°02' E 113°31'0 0.0
2015-Aug-28 21:29N 23°02' E 113°31'0 0.0
2015-Aug-28 20:29N 23°02' E 113°31'0 0.0
2015-Aug-28 19:23N 23°02' E 113°31'0 0.0
2015-Aug-28 18:29N 23°02' E 113°31'0 0.0
2015-Aug-28 17:29N 23°02' E 113°31'1 0.7
2015-Aug-28 16:32N 23°01' E 113°32'8 8.2
2015-Aug-28 15:34N 22°53' E 113°34'11 5.2
2015-Aug-28 13:27N 22°44' E 113°40'0 0.0
2015-Aug-28 12:27N 22°44' E 113°40'0 0.1
2015-Aug-28 10:09N 22°44' E 113°40'0 0.2
2015-Aug-28 09:32N 22°43' E 113°40'0 0.1
2015-Aug-28 02:30N 22°44' E 113°40'0 0.1
2015-Aug-28 01:32N 22°44' E 113°40'21 8.6
2015-Aug-27 23:09N 22°24' E 113°46'711.1
2015-Aug-27 22:33N 22°18' E 113°48'1110.3
2015-Aug-27 21:31N 22°07' E 113°51'  

Dump ship's entire track history